createdAt,value
2023-02-13T00:01:28.814Z,0.90
2023-02-13T00:03:58.387Z,1.58
2023-02-13T00:06:26.851Z,1.42
2023-02-13T00:08:55.094Z,1.63
2023-02-13T00:11:23.470Z,2.35
2023-02-13T00:13:51.675Z,1.27
2023-02-13T00:16:19.732Z,1.20
2023-02-13T00:18:47.783Z,1.75
2023-02-13T00:21:18.322Z,1.58
2023-02-13T00:23:46.916Z,1.35
2023-02-13T00:26:17.095Z,1.52
2023-02-13T00:28:45.886Z,3.20
2023-02-13T00:31:17.028Z,2.15
2023-02-13T00:33:45.235Z,3.38
2023-02-13T00:36:16.229Z,2.53
2023-02-13T00:38:47.352Z,2.25
2023-02-13T00:41:19.654Z,1.48
2023-02-13T00:43:48.869Z,2.78
2023-02-13T00:46:17.479Z,3.40
2023-02-13T00:48:46.150Z,1.80
2023-02-13T00:51:15.254Z,4.53
2023-02-13T00:53:46.119Z,8.10
2023-02-13T00:56:16.478Z,8.57
2023-02-13T00:58:44.693Z,12.55
2023-02-13T01:01:13.336Z,10.93
2023-02-13T01:03:41.718Z,12.90
2023-02-13T01:06:10.199Z,15.18
2023-02-13T01:08:40.946Z,13.38
2023-02-13T01:11:09.128Z,16.65
2023-02-13T01:13:39.443Z,12.15
2023-02-13T01:16:08.484Z,15.32
2023-02-13T01:18:36.540Z,21.00
2023-02-13T01:21:08.201Z,18.98
2023-02-13T01:23:38.772Z,19.23
2023-02-13T01:26:08.713Z,18.65
2023-02-13T01:28:38.502Z,18.65
2023-02-13T01:31:06.978Z,16.48
2023-02-13T01:33:36.230Z,17.42
2023-02-13T01:36:08.393Z,21.45
2023-02-13T01:38:36.925Z,18.52
2023-02-13T01:41:05.469Z,20.63
2023-02-13T01:43:51.153Z,23.70
2023-02-13T01:46:23.989Z,22.90
2023-02-13T01:48:55.545Z,24.05
2023-02-13T01:51:28.479Z,16.42
2023-02-13T01:54:02.075Z,22.37
2023-02-13T01:56:32.687Z,17.50
2023-02-13T01:59:06.756Z,20.33
2023-02-13T02:01:36.274Z,13.80
2023-02-13T02:04:10.696Z,17.45
2023-02-13T02:06:44.345Z,17.25
2023-02-13T02:09:17.125Z,16.40
2023-02-13T02:11:54.240Z,17.40
2023-02-13T02:14:24.258Z,18.75
2023-02-13T02:16:54.521Z,14.05
2023-02-13T02:19:32.140Z,15.32
2023-02-13T02:22:29.713Z,17.00
2023-02-13T02:25:26.553Z,20.63
2023-02-13T02:28:21.185Z,16.65
2023-02-13T02:31:37.881Z,16.77
2023-02-13T02:34:16.995Z,16.13
2023-02-13T02:37:03.773Z,17.38
2023-02-13T02:39:38.906Z,17.17
2023-02-13T02:42:19.729Z,21.55
2023-02-13T02:44:58.988Z,16.27
2023-02-13T02:47:49.598Z,16.85
2023-02-13T02:50:28.420Z,16.10
2023-02-13T02:53:07.512Z,17.80
2023-02-13T02:55:43.146Z,20.98
2023-02-13T02:58:36.456Z,18.65
2023-02-13T03:01:25.079Z,17.98
2023-02-13T03:04:14.353Z,18.90
2023-02-13T03:06:48.570Z,16.67
2023-02-13T03:09:39.596Z,16.08
2023-02-13T03:12:26.978Z,13.55
2023-02-13T03:14:55.538Z,16.67
2023-02-13T03:17:41.100Z,15.43
2023-02-13T03:20:34.625Z,15.55
2023-02-13T03:23:15.123Z,17.10
2023-02-13T03:26:02.248Z,19.77
2023-02-13T03:28:56.060Z,14.07
2023-02-13T03:31:34.157Z,12.40
2023-02-13T03:34:06.026Z,18.35
2023-02-13T03:37:02.019Z,13.20
2023-02-13T03:39:40.513Z,17.55
2023-02-13T03:42:13.722Z,14.27
2023-02-13T03:44:46.192Z,15.60
2023-02-13T03:47:16.167Z,13.25
2023-02-13T03:50:06.181Z,16.60
2023-02-13T03:52:39.707Z,12.18
2023-02-13T03:55:31.489Z,16.25
2023-02-13T03:58:21.339Z,14.93
2023-02-13T04:00:53.248Z,13.50
2023-02-13T04:03:28.012Z,17.20
2023-02-13T04:06:02.986Z,13.15
2023-02-13T04:08:31.275Z,17.95
2023-02-13T04:11:08.977Z,15.18
2023-02-13T04:13:44.154Z,17.75
2023-02-13T04:16:18.051Z,14.38
2023-02-13T04:21:15.413Z,15.82
2023-02-13T04:23:44.925Z,17.00
2023-02-13T04:26:19.707Z,14.15
2023-02-13T04:28:49.103Z,15.40
2023-02-13T04:31:18.373Z,16.58
2023-02-13T04:33:47.099Z,18.92
2023-02-13T04:36:15.587Z,19.38
2023-02-13T04:38:45.564Z,18.15
2023-02-13T04:41:15.847Z,21.20
2023-02-13T04:43:44.115Z,16.02
2023-02-13T04:46:12.876Z,14.00
2023-02-13T04:48:41.470Z,17.58
2023-02-13T04:51:09.941Z,19.50
2023-02-13T04:53:38.178Z,16.27
2023-02-13T04:56:06.815Z,14.98
2023-02-13T04:58:36.437Z,16.27
2023-02-13T05:01:12.473Z,17.45
2023-02-13T05:03:40.703Z,23.55
2023-02-13T05:06:10.532Z,14.95
2023-02-13T05:08:39.108Z,21.80
2023-02-13T05:11:07.750Z,21.45
2023-02-13T05:13:38.319Z,19.33
2023-02-13T05:16:07.738Z,18.38
2023-02-13T05:18:36.077Z,15.20
2023-02-13T05:21:21.854Z,13.07
2023-02-13T05:23:50.642Z,13.05
2023-02-13T05:26:19.232Z,15.95
2023-02-13T05:29:06.869Z,17.85
2023-02-13T05:31:36.561Z,19.33
2023-02-13T05:34:05.499Z,15.23
2023-02-13T05:36:33.997Z,15.77
2023-02-13T05:39:03.364Z,18.30
2023-02-13T05:41:32.509Z,15.30
2023-02-13T05:44:12.247Z,17.85
2023-02-13T05:46:45.456Z,23.65
2023-02-13T05:49:18.211Z,18.17
2023-02-13T05:51:47.624Z,21.20
2023-02-13T05:54:16.741Z,15.45
2023-02-13T05:56:45.209Z,14.93
2023-02-13T05:59:15.300Z,18.05
2023-02-13T06:01:43.814Z,16.70
2023-02-13T06:04:12.434Z,13.90
2023-02-13T06:06:40.696Z,14.15
2023-02-13T06:09:08.979Z,14.98
2023-02-13T06:11:37.673Z,19.00
2023-02-13T06:14:06.161Z,14.40
2023-02-13T06:16:36.302Z,16.27
2023-02-13T06:19:05.327Z,15.63
2023-02-13T06:21:38.144Z,23.83
2023-02-13T06:24:07.614Z,13.13
2023-02-13T06:26:37.393Z,19.13
2023-02-13T06:29:06.894Z,16.63
2023-02-13T06:31:37.387Z,24.30
2023-02-13T06:34:06.016Z,15.15
2023-02-13T06:36:37.700Z,16.30
2023-02-13T06:39:06.370Z,19.50
2023-02-13T06:41:35.101Z,13.82
2023-02-13T06:44:03.227Z,19.60
2023-02-13T06:46:31.769Z,14.02
2023-02-13T06:49:01.621Z,17.63
2023-02-13T06:51:30.133Z,17.42
2023-02-13T06:53:58.901Z,15.68
2023-02-13T06:56:27.401Z,9.48
2023-02-13T06:58:58.396Z,16.48
2023-02-13T07:01:26.932Z,13.18
2023-02-13T07:03:55.432Z,11.52
2023-02-13T07:06:25.219Z,10.60
2023-02-13T07:08:56.018Z,13.93
2023-02-13T07:11:26.086Z,9.52
2023-02-13T07:13:54.775Z,9.93
2023-02-13T07:16:23.368Z,12.77
2023-02-13T07:18:51.734Z,12.05
2023-02-13T07:21:20.029Z,12.55
2023-02-13T07:23:49.452Z,11.15
2023-02-13T07:26:17.619Z,11.93
2023-02-13T07:28:45.950Z,10.40
2023-02-13T07:31:15.111Z,10.65
2023-02-13T07:33:46.379Z,11.68
2023-02-13T07:36:16.692Z,9.10
2023-02-13T07:38:45.049Z,8.43
2023-02-13T07:41:15.771Z,9.40
2023-02-13T07:43:44.176Z,13.95
2023-02-13T07:46:12.250Z,8.90
2023-02-13T07:48:40.633Z,12.93
2023-02-13T07:51:08.900Z,11.93
2023-02-13T07:53:37.505Z,12.07
2023-02-13T07:56:09.875Z,12.38
2023-02-13T07:58:41.360Z,9.98
2023-02-13T08:01:10.554Z,10.35
2023-02-13T08:03:39.304Z,13.35
2023-02-13T08:06:08.847Z,11.63
2023-02-13T08:08:38.485Z,10.30
2023-02-13T08:11:26.868Z,10.82
2023-02-13T08:13:56.606Z,13.77
2023-02-13T08:16:25.221Z,10.38
2023-02-13T08:18:53.786Z,12.73
2023-02-13T08:21:22.367Z,11.48
2023-02-13T08:23:52.125Z,10.30
2023-02-13T08:26:20.858Z,11.38
2023-02-13T08:28:49.045Z,12.50
2023-02-13T08:31:19.225Z,13.85
2023-02-13T08:33:50.843Z,10.30
2023-02-13T08:36:21.358Z,6.75
2023-02-13T08:38:49.999Z,8.35
2023-02-13T08:41:21.044Z,8.40
2023-02-13T08:43:50.010Z,13.25
2023-02-13T08:46:20.836Z,6.80
2023-02-13T08:48:49.268Z,8.07
2023-02-13T08:51:17.533Z,7.40
2023-02-13T08:53:45.601Z,7.85
2023-02-13T08:56:15.417Z,11.05
2023-02-13T08:58:43.977Z,16.30
2023-02-13T09:01:12.807Z,10.23
2023-02-13T09:03:45.966Z,8.57
2023-02-13T09:06:14.446Z,11.57
2023-02-13T09:08:42.729Z,17.98
2023-02-13T09:11:11.942Z,12.70
2023-02-13T09:13:40.008Z,8.43
2023-02-13T09:16:11.804Z,13.70
2023-02-13T09:18:41.777Z,10.60
2023-02-13T09:21:12.739Z,9.45
2023-02-13T09:23:42.436Z,21.15
2023-02-13T09:26:15.185Z,9.68
2023-02-13T09:28:44.112Z,8.32
2023-02-13T09:31:15.568Z,11.45
2023-02-13T09:33:46.844Z,12.00
2023-02-13T09:36:19.349Z,11.50
2023-02-13T09:38:48.414Z,15.65
2023-02-13T09:41:19.887Z,14.32
2023-02-13T09:43:52.633Z,13.27
2023-02-13T09:46:25.308Z,10.35
2023-02-13T09:48:58.710Z,15.15
2023-02-13T09:51:28.572Z,12.55
2023-02-13T09:54:01.026Z,16.08
2023-02-13T09:56:42.290Z,15.82
2023-02-13T09:59:22.879Z,16.95
2023-02-13T10:01:55.392Z,15.50
2023-02-13T10:04:39.047Z,14.77
2023-02-13T10:07:24.757Z,14.00
2023-02-13T10:09:59.886Z,14.30
2023-02-13T10:12:46.395Z,20.25
2023-02-13T10:15:23.195Z,15.65
2023-02-13T10:17:57.917Z,18.58
2023-02-13T10:20:33.779Z,17.33
2023-02-13T10:23:12.425Z,16.58
2023-02-13T10:25:48.703Z,14.13
2023-02-13T10:28:31.236Z,13.88
2023-02-13T10:31:07.134Z,16.00
2023-02-13T10:33:42.125Z,14.93
2023-02-13T10:36:23.494Z,12.80
2023-02-13T10:38:58.669Z,17.77
2023-02-13T10:41:41.243Z,14.90
2023-02-13T10:44:32.621Z,16.92
2023-02-13T10:47:15.082Z,16.33
2023-02-13T10:49:53.614Z,18.80
2023-02-13T10:52:34.854Z,15.98
2023-02-13T10:55:24.999Z,16.73
2023-02-13T10:58:08.773Z,15.43
2023-02-13T11:00:43.142Z,13.63
2023-02-13T11:03:19.854Z,16.50
2023-02-13T11:05:48.124Z,16.00
2023-02-13T11:08:22.871Z,19.92
2023-02-13T11:10:51.862Z,17.60
2023-02-13T11:13:22.596Z,16.73
2023-02-13T11:16:04.120Z,16.92
2023-02-13T11:18:35.245Z,14.40
2023-02-13T11:21:09.222Z,12.85
2023-02-13T11:23:47.655Z,20.25
2023-02-13T11:26:23.681Z,12.88
2023-02-13T11:28:56.479Z,14.38
2023-02-13T11:31:29.815Z,18.92
2023-02-13T11:33:59.659Z,15.25
2023-02-13T11:36:30.250Z,12.40
2023-02-13T11:39:07.601Z,12.88
2023-02-13T11:41:43.490Z,12.85
2023-02-13T11:44:25.661Z,13.60
2023-02-13T11:46:56.383Z,13.77
2023-02-13T11:49:26.820Z,10.27
2023-02-13T11:51:57.262Z,16.38
2023-02-13T11:54:32.094Z,16.02
2023-02-13T11:57:04.818Z,10.57
2023-02-13T11:59:41.441Z,13.57
2023-02-13T12:02:20.009Z,14.57
2023-02-13T12:04:50.671Z,11.50
2023-02-13T12:07:23.460Z,10.70
2023-02-13T12:09:59.747Z,10.18
2023-02-13T12:12:35.318Z,14.00
2023-02-13T12:15:16.931Z,8.77
2023-02-13T12:17:47.923Z,10.35
2023-02-13T12:20:20.662Z,11.05
2023-02-13T12:23:05.047Z,14.20
2023-02-13T12:28:14.382Z,12.68
2023-02-13T12:31:15.882Z,11.13
2023-02-13T12:34:05.604Z,10.93
2023-02-13T12:36:41.117Z,6.75
2023-02-13T12:39:19.714Z,9.98
2023-02-13T12:42:02.394Z,8.60
2023-02-13T12:44:56.302Z,10.40
2023-02-13T12:47:29.600Z,9.43
2023-02-13T12:50:22.281Z,8.10
2023-02-13T12:53:10.357Z,11.15
2023-02-13T12:56:12.596Z,8.82
2023-02-13T12:59:09.513Z,7.55
2023-02-13T13:02:09.532Z,7.18
2023-02-13T13:04:52.150Z,8.77
2023-02-13T13:07:42.200Z,7.97
2023-02-13T13:10:46.484Z,10.35
2023-02-13T13:13:26.198Z,6.28
2023-02-13T13:16:04.842Z,6.63
2023-02-13T13:18:44.605Z,5.13
2023-02-13T13:21:23.717Z,9.05
2023-02-13T13:24:00.744Z,5.80
2023-02-13T13:26:37.559Z,6.13
2023-02-13T13:29:08.129Z,7.22
2023-02-13T13:31:39.198Z,6.20
2023-02-13T13:34:15.122Z,5.15
2023-02-13T13:36:48.902Z,6.82
2023-02-13T13:39:29.225Z,6.82
2023-02-13T13:42:08.415Z,7.35
2023-02-13T13:45:02.392Z,5.40
2023-02-13T13:47:47.342Z,6.18
2023-02-13T13:50:23.150Z,5.45
2023-02-13T13:53:09.833Z,7.32
2023-02-13T13:56:08.548Z,5.97
2023-02-13T13:58:40.840Z,6.60
2023-02-13T14:01:29.258Z,5.15
2023-02-13T14:04:02.330Z,8.50
2023-02-13T14:07:09.384Z,6.25
2023-02-13T14:09:40.564Z,5.50
2023-02-13T14:12:38.445Z,4.18
2023-02-13T14:15:07.105Z,5.47
2023-02-13T14:18:08.241Z,5.55
2023-02-13T14:20:42.810Z,4.75
2023-02-13T14:23:24.439Z,5.32
2023-02-13T14:25:52.816Z,4.85
2023-02-13T14:28:26.217Z,4.68
2023-02-13T14:31:07.260Z,10.70
2023-02-13T14:33:36.433Z,6.45
2023-02-13T14:36:18.702Z,4.05
2023-02-13T14:38:57.313Z,5.97
2023-02-13T14:41:47.621Z,5.53
2023-02-13T14:44:21.128Z,7.78
2023-02-13T14:46:52.138Z,4.70
2023-02-13T14:49:25.738Z,8.48
2023-02-13T14:51:58.726Z,9.85
2023-02-13T14:54:31.925Z,5.70
2023-02-13T14:57:07.829Z,5.63
2023-02-13T14:59:39.466Z,5.80
2023-02-13T15:02:19.871Z,4.50
2023-02-13T15:04:51.562Z,4.65
2023-02-13T15:07:24.871Z,6.18
2023-02-13T15:09:57.859Z,4.78
2023-02-13T15:12:36.067Z,7.10
2023-02-13T15:15:23.822Z,7.28
2023-02-13T15:17:54.441Z,6.30
2023-02-13T15:20:28.288Z,5.63
2023-02-13T15:22:59.125Z,4.97
2023-02-13T15:25:34.641Z,5.75
2023-02-13T15:28:05.353Z,9.15
2023-02-13T15:30:36.712Z,9.70
2023-02-13T15:33:17.007Z,6.93
2023-02-13T15:35:46.050Z,8.05
2023-02-13T15:38:26.171Z,7.25
2023-02-13T15:40:59.059Z,10.30
2023-02-13T15:43:36.736Z,12.85
2023-02-13T15:46:08.559Z,6.07
2023-02-13T15:48:37.033Z,8.13
2023-02-13T15:51:06.012Z,7.25
2023-02-13T15:53:35.848Z,8.77
2023-02-13T15:56:08.168Z,5.40
2023-02-13T15:58:36.975Z,4.25
2023-02-13T16:01:08.938Z,6.53
2023-02-13T16:03:38.947Z,4.63
2023-02-13T16:06:11.214Z,9.23
2023-02-13T16:08:44.605Z,5.28
2023-02-13T16:11:36.694Z,6.28
2023-02-13T16:14:10.603Z,8.38
2023-02-13T16:16:47.754Z,7.15
2023-02-13T16:19:39.607Z,8.63
2023-02-13T16:22:21.810Z,7.82
2023-02-13T16:24:55.198Z,7.93
2023-02-13T16:27:29.599Z,8.35
2023-02-13T16:30:01.614Z,9.73
2023-02-13T16:32:33.345Z,8.55
2023-02-13T16:35:17.271Z,8.80
2023-02-13T16:37:53.329Z,11.32
2023-02-13T16:40:40.261Z,8.52
2023-02-13T16:43:41.228Z,8.43
2023-02-13T16:46:19.379Z,6.82
2023-02-13T16:48:50.308Z,7.85
2023-02-13T16:51:32.144Z,6.68
2023-02-13T16:54:02.450Z,7.57
2023-02-13T16:56:39.129Z,9.50
2023-02-13T16:59:25.698Z,10.85
2023-02-13T17:02:17.850Z,13.60
2023-02-13T17:04:48.329Z,12.73
2023-02-13T17:07:21.225Z,12.27
2023-02-13T17:10:02.431Z,16.30
2023-02-13T17:12:39.498Z,16.45
2023-02-13T17:15:13.686Z,11.80
2023-02-13T17:17:42.733Z,11.73
2023-02-13T17:20:17.746Z,12.13
2023-02-13T17:22:48.123Z,9.30
2023-02-13T17:25:22.623Z,7.35
2023-02-13T17:27:54.280Z,8.85
2023-02-13T17:30:24.559Z,9.77
2023-02-13T17:32:58.736Z,7.15
2023-02-13T17:35:28.323Z,12.00
2023-02-13T17:37:57.344Z,11.27
2023-02-13T17:40:28.945Z,9.48
2023-02-13T17:43:01.000Z,9.02
2023-02-13T17:45:31.283Z,10.57
2023-02-13T17:48:00.957Z,12.38
2023-02-13T17:50:31.515Z,10.52
2023-02-13T17:53:07.471Z,8.38
2023-02-13T17:55:37.619Z,9.02
2023-02-13T17:58:07.971Z,7.57
2023-02-13T18:00:38.347Z,8.60
2023-02-13T18:03:06.331Z,12.18
2023-02-13T18:05:35.238Z,12.20
2023-02-13T18:08:06.807Z,12.55
2023-02-13T18:10:38.026Z,12.38
2023-02-13T18:13:13.365Z,11.57
2023-02-13T18:15:44.653Z,13.10
2023-02-13T18:18:14.425Z,10.68
2023-02-13T18:20:43.569Z,12.00
2023-02-13T18:23:12.136Z,10.73
2023-02-13T18:25:40.872Z,13.02
2023-02-13T18:28:13.613Z,13.95
2023-02-13T18:30:50.543Z,13.38
2023-02-13T18:33:19.812Z,11.85
2023-02-13T18:35:49.298Z,10.18
2023-02-13T18:38:18.604Z,13.02
2023-02-13T18:40:47.380Z,10.65
2023-02-13T18:43:17.781Z,18.50
2023-02-13T18:45:46.787Z,15.68
2023-02-13T18:48:14.954Z,12.80
2023-02-13T18:50:44.142Z,18.25
2023-02-13T18:53:12.678Z,18.92
2023-02-13T18:55:41.074Z,17.05
2023-02-13T18:58:09.624Z,22.67
2023-02-13T19:00:39.331Z,21.17
2023-02-13T19:03:09.087Z,15.48
2023-02-13T19:05:42.172Z,21.70
2023-02-13T19:08:10.868Z,22.30
2023-02-13T19:10:39.340Z,20.58
2023-02-13T19:13:08.124Z,23.33
2023-02-13T19:15:39.361Z,25.00
2023-02-13T19:18:07.635Z,20.00
2023-02-13T19:20:38.634Z,25.38
2023-02-13T19:23:11.865Z,28.42
2023-02-13T19:25:41.836Z,24.95
2023-02-13T19:28:11.433Z,21.48
2023-02-13T19:30:45.385Z,22.08
2023-02-13T19:35:48.481Z,24.17
2023-02-13T19:38:17.173Z,31.00
2023-02-13T19:40:46.266Z,26.75
2023-02-13T19:43:16.181Z,33.42
2023-02-13T19:45:51.351Z,27.25
2023-02-13T19:48:23.140Z,33.35
2023-02-13T19:50:53.891Z,33.42
2023-02-13T19:53:23.949Z,33.22
2023-02-13T19:56:05.741Z,30.73
2023-02-13T19:58:37.869Z,30.10
2023-02-13T20:01:13.335Z,32.55
2023-02-13T20:03:42.430Z,25.63
2023-02-13T20:06:14.232Z,28.65
2023-02-13T20:08:43.208Z,38.40
2023-02-13T20:11:13.380Z,26.75
2023-02-13T20:13:42.652Z,31.52
2023-02-13T20:16:14.532Z,31.35
2023-02-13T20:18:43.131Z,27.08
2023-02-13T20:21:13.571Z,30.33
2023-02-13T20:23:42.578Z,32.35
2023-02-13T20:26:14.890Z,35.60
2023-02-13T20:28:45.018Z,32.15
2023-02-13T20:31:17.000Z,32.78
2023-02-13T20:33:46.272Z,27.05
2023-02-13T20:36:16.503Z,25.58
2023-02-13T20:38:45.250Z,24.65
2023-02-13T20:41:16.151Z,29.10
2023-02-13T20:43:45.914Z,28.98
2023-02-13T20:46:17.067Z,34.33
2023-02-13T20:48:47.461Z,30.25
2023-02-13T20:51:18.017Z,28.13
2023-02-13T20:53:47.388Z,32.83
2023-02-13T20:56:17.602Z,26.13
2023-02-13T20:58:48.244Z,32.95
2023-02-13T21:01:22.471Z,32.78
2023-02-13T21:03:53.837Z,31.25
2023-02-13T21:06:23.130Z,28.40
2023-02-13T21:08:52.047Z,33.85
2023-02-13T21:11:28.336Z,31.88
2023-02-13T21:13:57.176Z,31.38
2023-02-13T21:16:28.877Z,30.40
2023-02-13T21:18:59.163Z,38.10
2023-02-13T21:21:30.244Z,29.48
2023-02-13T21:24:00.356Z,34.33
2023-02-13T21:26:30.544Z,32.80
2023-02-13T21:28:59.823Z,28.60
2023-02-13T21:31:32.716Z,34.35
2023-02-13T21:34:03.262Z,36.07
2023-02-13T21:36:32.636Z,37.05
2023-02-13T21:39:02.062Z,32.55
2023-02-13T21:41:31.242Z,30.85
2023-02-13T21:43:59.474Z,27.73
2023-02-13T21:46:33.846Z,32.78
2023-02-13T21:49:03.777Z,30.15
2023-02-13T21:51:33.545Z,29.15
2023-02-13T21:54:03.907Z,37.85
2023-02-13T21:56:34.230Z,27.52
2023-02-13T21:59:03.434Z,32.22
2023-02-13T22:01:35.477Z,30.27
2023-02-13T22:04:06.149Z,30.40
2023-02-13T22:06:37.210Z,34.22
2023-02-13T22:09:07.739Z,33.78
2023-02-13T22:11:37.653Z,39.70
2023-02-13T22:14:07.899Z,34.28
2023-02-13T22:16:39.700Z,35.08
2023-02-13T22:19:08.945Z,34.90
2023-02-13T22:21:37.513Z,29.27
2023-02-13T22:24:06.224Z,32.50
2023-02-13T22:26:37.874Z,25.17
2023-02-13T22:29:09.028Z,29.60
2023-02-13T22:31:40.123Z,28.08
2023-02-13T22:34:13.840Z,31.65
2023-02-13T22:36:43.305Z,31.92
2023-02-13T22:39:13.461Z,31.40
2023-02-13T22:41:46.024Z,27.63
2023-02-13T22:44:14.420Z,27.88
2023-02-13T22:46:45.438Z,28.67
2023-02-13T22:49:14.134Z,29.77
2023-02-13T22:51:42.619Z,25.20
2023-02-13T22:54:11.777Z,29.35
2023-02-13T22:56:40.010Z,26.95
2023-02-13T22:59:08.491Z,31.35
2023-02-13T23:01:37.392Z,24.88
2023-02-13T23:04:07.230Z,34.33
2023-02-13T23:06:35.736Z,27.60
2023-02-13T23:09:03.816Z,28.20
2023-02-13T23:11:49.733Z,28.95
2023-02-13T23:14:17.766Z,29.80
2023-02-13T23:17:03.816Z,27.35
2023-02-13T23:19:33.331Z,32.90
2023-02-13T23:22:01.813Z,32.85
2023-02-13T23:24:30.841Z,27.92
2023-02-13T23:26:59.203Z,30.58
2023-02-13T23:29:28.991Z,31.25
2023-02-13T23:31:57.304Z,29.50
2023-02-13T23:34:25.518Z,31.05
2023-02-13T23:36:55.128Z,27.48
2023-02-13T23:39:24.730Z,29.48
2023-02-13T23:41:52.902Z,27.88
2023-02-13T23:44:21.247Z,27.10
2023-02-13T23:46:49.447Z,31.83
2023-02-13T23:49:17.970Z,26.60
2023-02-13T23:51:46.038Z,32.03
2023-02-13T23:54:17.617Z,27.65
2023-02-13T23:56:46.306Z,32.95
2023-02-13T23:59:14.368Z,26.52
